sensor_id;sensor_type;location;lat;lon;timestamp;P1;durP1;ratioP1;P2;durP2;ratioP2
19946;SDS011;10135;50.702;7.276;2023-04-03T05:00:43;2.10;;;1.90;;
19946;SDS011;10135;50.702;7.276;2023-04-03T05:02:44;2.40;;;2.10;;
19946;SDS011;10135;50.702;7.276;2023-04-03T05:04:45;1.90;;;1.80;;
19946;SDS011;10135;50.702;7.276;2023-04-03T05:06:45;1.90;;;1.80;;
19946;SDS011;10135;50.702;7.276;2023-04-03T05:08:46;1.77;;;1.70;;
19946;SDS011;10135;50.702;7.276;2023-04-03T05:10:47;1.90;;;1.80;;
19946;SDS011;10135;50.702;7.276;2023-04-03T05:12:48;2.20;;;1.70;;
19946;SDS011;10135;50.702;7.276;2023-04-03T05:14:48;2.10;;;1.83;;
19946;SDS011;10135;50.702;7.276;2023-04-03T05:16:49;2.20;;;2.00;;
19946;SDS011;10135;50.702;7.276;2023-04-03T05:18:53;2.00;;;1.90;;
19946;SDS011;10135;50.702;7.276;2023-04-03T05:20:54;1.63;;;1.63;;
19946;SDS011;10135;50.702;7.276;2023-04-03T05:22:54;3.30;;;2.00;;
19946;SDS011;10135;50.702;7.276;2023-04-03T05:24:55;3.27;;;2.03;;
19946;SDS011;10135;50.702;7.276;2023-04-03T05:26:56;1.87;;;1.77;;
19946;SDS011;10135;50.702;7.276;2023-04-03T05:28:56;3.60;;;1.80;;
19946;SDS011;10135;50.702;7.276;2023-04-03T05:30:58;2.40;;;1.93;;
19946;SDS011;10135;50.702;7.276;2023-04-03T05:32:59;3.97;;;2.00;;
19946;SDS011;10135;50.702;7.276;2023-04-03T05:35:00;4.37;;;1.93;;
19946;SDS011;10135;50.702;7.276;2023-04-03T05:37:01;1.97;;;1.87;;
19946;SDS011;10135;50.702;7.276;2023-04-03T05:39:03;2.70;;;1.83;;
19946;SDS011;10135;50.702;7.276;2023-04-03T05:41:04;2.73;;;1.97;;
19946;SDS011;10135;50.702;7.276;2023-04-03T05:43:05;1.80;;;1.70;;
19946;SDS011;10135;50.702;7.276;2023-04-03T05:45:05;2.37;;;2.27;;
19946;SDS011;10135;50.702;7.276;2023-04-03T05:47:06;2.20;;;1.90;;
19946;SDS011;10135;50.702;7.276;2023-04-03T05:49:07;2.37;;;1.80;;
19946;SDS011;10135;50.702;7.276;2023-04-03T05:51:09;2.10;;;1.90;;
19946;SDS011;10135;50.702;7.276;2023-04-03T05:53:22;3.23;;;2.03;;
19946;SDS011;10135;50.702;7.276;2023-04-03T05:55:28;3.93;;;1.80;;
19946;SDS011;10135;50.702;7.276;2023-04-03T05:57:28;2.50;;;1.90;;
19946;SDS011;10135;50.702;7.276;2023-04-03T05:59:29;2.27;;;1.80;;
19946;SDS011;10135;50.702;7.276;2023-04-03T06:01:30;2.33;;;1.70;;
19946;SDS011;10135;50.702;7.276;2023-04-03T06:03:31;1.93;;;1.70;;
19946;SDS011;10135;50.702;7.276;2023-04-03T06:05:32;1.90;;;1.67;;
19946;SDS011;10135;50.702;7.276;2023-04-03T06:07:32;3.90;;;1.87;;
19946;SDS011;10135;50.702;7.276;2023-04-03T06:09:33;4.17;;;1.73;;
19946;SDS011;10135;50.702;7.276;2023-04-03T06:11:34;2.23;;;1.80;;
19946;SDS011;10135;50.702;7.276;2023-04-03T06:13:35;5.37;;;1.60;;
19946;SDS011;10135;50.702;7.276;2023-04-03T06:15:36;1.90;;;1.77;;
19946;SDS011;10135;50.702;7.276;2023-04-03T06:17:38;2.47;;;1.60;;
19946;SDS011;10135;50.702;7.276;2023-04-03T06:19:38;1.83;;;1.57;;
19946;SDS011;10135;50.702;7.276;2023-04-03T06:21:39;2.03;;;1.43;;
19946;SDS011;10135;50.702;7.276;2023-04-03T06:23:40;4.17;;;1.30;;
19946;SDS011;10135;50.702;7.276;2023-04-03T06:25:41;3.90;;;1.40;;
19946;SDS011;10135;50.702;7.276;2023-04-03T06:27:42;1.77;;;1.20;;
19946;SDS011;10135;50.702;7.276;2023-04-03T06:29:43;2.13;;;1.33;;
19946;SDS011;10135;50.702;7.276;2023-04-03T06:31:45;1.47;;;1.33;;
19946;SDS011;10135;50.702;7.276;2023-04-03T06:33:46;2.60;;;1.20;;
19946;SDS011;10135;50.702;7.276;2023-04-03T06:35:47;3.30;;;1.60;;
19946;SDS011;10135;50.702;7.276;2023-04-03T06:37:47;3.13;;;1.47;;
19946;SDS011;10135;50.702;7.276;2023-04-03T06:39:48;2.23;;;1.40;;
19946;SDS011;10135;50.702;7.276;2023-04-03T06:41:50;1.20;;;1.13;;
19946;SDS011;10135;50.702;7.276;2023-04-03T06:43:50;1.40;;;1.30;;
19946;SDS011;10135;50.702;7.276;2023-04-03T06:45:51;2.27;;;1.30;;
19946;SDS011;10135;50.702;7.276;2023-04-03T06:47:52;1.70;;;1.47;;
19946;SDS011;10135;50.702;7.276;2023-04-03T06:49:53;1.87;;;1.23;;
19946;SDS011;10135;50.702;7.276;2023-04-03T06:51:54;1.63;;;1.40;;
19946;SDS011;10135;50.702;7.276;2023-04-03T06:53:56;2.03;;;1.50;;
19946;SDS011;10135;50.702;7.276;2023-04-03T06:55:59;1.30;;;1.30;;
19946;SDS011;10135;50.702;7.276;2023-04-03T06:58:00;2.07;;;1.43;;
19946;SDS011;10135;50.702;7.276;2023-04-03T07:00:01;1.80;;;1.20;;
19946;SDS011;10135;50.702;7.276;2023-04-03T07:02:04;2.83;;;1.63;;
19946;SDS011;10135;50.702;7.276;2023-04-03T07:04:04;1.33;;;1.23;;
19946;SDS011;10135;50.702;7.276;2023-04-03T07:06:06;1.33;;;1.23;;
19946;SDS011;10135;50.702;7.276;2023-04-03T07:08:10;1.63;;;1.53;;
19946;SDS011;10135;50.702;7.276;2023-04-03T07:10:11;3.17;;;1.40;;
19946;SDS011;10135;50.702;7.276;2023-04-03T07:12:12;1.40;;;1.30;;
19946;SDS011;10135;50.702;7.276;2023-04-03T07:14:13;2.10;;;1.40;;
19946;SDS011;10135;50.702;7.276;2023-04-03T07:16:13;1.70;;;1.60;;
19946;SDS011;10135;50.702;7.276;2023-04-03T07:18:14;1.47;;;1.37;;
19946;SDS011;10135;50.702;7.276;2023-04-03T07:20:15;1.83;;;1.30;;
19946;SDS011;10135;50.702;7.276;2023-04-03T07:22:15;2.00;;;1.40;;
19946;SDS011;10135;50.702;7.276;2023-04-03T07:24:16;2.00;;;1.53;;
19946;SDS011;10135;50.702;7.276;2023-04-03T07:26:17;1.40;;;1.30;;
19946;SDS011;10135;50.702;7.276;2023-04-03T07:28:18;2.73;;;1.63;;
19946;SDS011;10135;50.702;7.276;2023-04-03T07:30:20;2.63;;;1.37;;
19946;SDS011;10135;50.702;7.276;2023-04-03T07:32:21;1.50;;;1.40;;
19946;SDS011;10135;50.702;7.276;2023-04-03T07:34:21;1.40;;;1.30;;
19946;SDS011;10135;50.702;7.276;2023-04-03T07:36:22;3.67;;;1.57;;
19946;SDS011;10135;50.702;7.276;2023-04-03T07:38:24;3.03;;;1.60;;
19946;SDS011;10135;50.702;7.276;2023-04-03T07:40:25;2.53;;;1.30;;
19946;SDS011;10135;50.702;7.276;2023-04-03T07:42:26;1.83;;;1.50;;
19946;SDS011;10135;50.702;7.276;2023-04-03T07:44:27;1.80;;;1.50;;
19946;SDS011;10135;50.702;7.276;2023-04-03T07:46:29;1.47;;;1.37;;
19946;SDS011;10135;50.702;7.276;2023-04-03T07:48:29;2.73;;;1.60;;
19946;SDS011;10135;50.702;7.276;2023-04-03T07:50:30;3.70;;;1.53;;
19946;SDS011;10135;50.702;7.276;2023-04-03T07:52:32;1.53;;;1.43;;
19946;SDS011;10135;50.702;7.276;2023-04-03T07:54:32;1.77;;;1.53;;
19946;SDS011;10135;50.702;7.276;2023-04-03T07:56:34;1.50;;;1.40;;
19946;SDS011;10135;50.702;7.276;2023-04-03T07:58:35;2.73;;;1.50;;
19946;SDS011;10135;50.702;7.276;2023-04-03T08:00:36;3.30;;;1.30;;
19946;SDS011;10135;50.702;7.276;2023-04-03T08:02:37;2.97;;;1.70;;
19946;SDS011;10135;50.702;7.276;2023-04-03T08:04:38;1.60;;;1.47;;
19946;SDS011;10135;50.702;7.276;2023-04-03T08:06:39;3.17;;;1.50;;
19946;SDS011;10135;50.702;7.276;2023-04-03T08:08:40;2.77;;;1.60;;
19946;SDS011;10135;50.702;7.276;2023-04-03T08:10:41;2.83;;;1.57;;
19946;SDS011;10135;50.702;7.276;2023-04-03T08:12:42;2.27;;;1.60;;
19946;SDS011;10135;50.702;7.276;2023-04-03T08:14:47;1.57;;;1.47;;
19946;SDS011;10135;50.702;7.276;2023-04-03T08:16:48;2.60;;;1.50;;
19946;SDS011;10135;50.702;7.276;2023-04-03T08:18:49;1.67;;;1.50;;
19946;SDS011;10135;50.702;7.276;2023-04-03T08:20:50;2.47;;;1.50;;
19946;SDS011;10135;50.702;7.276;2023-04-03T08:22:51;1.87;;;1.60;;
19946;SDS011;10135;50.702;7.276;2023-04-03T08:24:52;2.33;;;1.60;;
19946;SDS011;10135;50.702;7.276;2023-04-03T08:26:53;1.50;;;1.40;;
19946;SDS011;10135;50.702;7.276;2023-04-03T08:28:55;3.27;;;1.53;;
19946;SDS011;10135;50.702;7.276;2023-04-03T08:30:56;3.70;;;1.70;;
19946;SDS011;10135;50.702;7.276;2023-04-03T08:33:03;1.67;;;1.57;;
19946;SDS011;10135;50.702;7.276;2023-04-03T08:35:05;1.60;;;1.47;;
19946;SDS011;10135;50.702;7.276;2023-04-03T08:37:06;6.17;;;1.43;;
19946;SDS011;10135;50.702;7.276;2023-04-03T08:39:06;3.70;;;1.43;;
19946;SDS011;10135;50.702;7.276;2023-04-03T08:41:13;2.50;;;1.40;;
19946;SDS011;10135;50.702;7.276;2023-04-03T08:43:34;6.07;;;1.73;;
19946;SDS011;10135;50.702;7.276;2023-04-03T08:45:57;2.07;;;1.37;;
19946;SDS011;10135;50.702;7.276;2023-04-03T08:48:06;1.40;;;1.40;;
19946;SDS011;10135;50.702;7.276;2023-04-03T08:50:14;3.33;;;1.50;;
19946;SDS011;10135;50.702;7.276;2023-04-03T08:52:25;3.40;;;1.77;;
19946;SDS011;10135;50.702;7.276;2023-04-03T08:54:52;3.77;;;2.00;;
19946;SDS011;10135;50.702;7.276;2023-04-03T08:56:57;1.67;;;1.40;;
19946;SDS011;10135;50.702;7.276;2023-04-03T08:59:04;2.07;;;1.40;;
19946;SDS011;10135;50.702;7.276;2023-04-03T09:01:19;1.60;;;1.40;;
19946;SDS011;10135;50.702;7.276;2023-04-03T09:03:41;3.17;;;1.37;;
19946;SDS011;10135;50.702;7.276;2023-04-03T09:05:44;1.70;;;1.60;;
19946;SDS011;10135;50.702;7.276;2023-04-03T09:07:58;1.40;;;1.30;;
19946;SDS011;10135;50.702;7.276;2023-04-03T09:10:11;2.77;;;1.47;;
19946;SDS011;10135;50.702;7.276;2023-04-03T09:12:21;3.50;;;1.47;;
19946;SDS011;10135;50.702;7.276;2023-04-03T09:19:02;2.50;;;1.40;;
19946;SDS011;10135;50.702;7.276;2023-04-03T09:21:20;1.27;;;1.20;;
19946;SDS011;10135;50.702;7.276;2023-04-03T09:25:48;1.80;;;1.40;;
19946;SDS011;10135;50.702;7.276;2023-04-03T09:27:53;1.50;;;1.40;;
19946;SDS011;10135;50.702;7.276;2023-04-03T09:29:55;1.90;;;1.40;;
19946;SDS011;10135;50.702;7.276;2023-04-03T09:31:59;3.23;;;1.53;;
19946;SDS011;10135;50.702;7.276;2023-04-03T09:34:03;2.13;;;1.60;;
19946;SDS011;10135;50.702;7.276;2023-04-03T09:38:45;1.50;;;1.40;;
19946;SDS011;10135;50.702;7.276;2023-04-03T09:40:49;3.03;;;1.60;;
19946;SDS011;10135;50.702;7.276;2023-04-03T09:45:33;7.67;;;1.63;;
19946;SDS011;10135;50.702;7.276;2023-04-03T09:47:36;2.80;;;1.70;;
19946;SDS011;10135;50.702;7.276;2023-04-03T09:49:37;1.70;;;1.27;;
19946;SDS011;10135;50.702;7.276;2023-04-03T09:51:38;2.23;;;1.30;;
19946;SDS011;10135;50.702;7.276;2023-04-03T09:53:40;3.03;;;1.43;;
19946;SDS011;10135;50.702;7.276;2023-04-03T09:55:43;1.43;;;1.20;;
19946;SDS011;10135;50.702;7.276;2023-04-03T09:57:45;1.93;;;1.40;;
19946;SDS011;10135;50.702;7.276;2023-04-03T09:59:58;3.03;;;1.90;;
19946;SDS011;10135;50.702;7.276;2023-04-03T10:02:24;2.43;;;2.03;;
19946;SDS011;10135;50.702;7.276;2023-04-03T10:04:38;1.83;;;1.50;;
19946;SDS011;10135;50.702;7.276;2023-04-03T10:06:45;2.40;;;1.40;;
19946;SDS011;10135;50.702;7.276;2023-04-03T10:09:05;4.33;;;1.47;;
19946;SDS011;10135;50.702;7.276;2023-04-03T10:11:21;1.97;;;1.40;;
19946;SDS011;10135;50.702;7.276;2023-04-03T10:13:23;1.43;;;1.30;;
19946;SDS011;10135;50.702;7.276;2023-04-03T10:15:24;3.47;;;1.50;;
19946;SDS011;10135;50.702;7.276;2023-04-03T10:19:49;2.73;;;1.40;;
19946;SDS011;10135;50.702;7.276;2023-04-03T10:24:21;3.60;;;1.20;;
19946;SDS011;10135;50.702;7.276;2023-04-03T10:31:46;1.43;;;1.30;;
19946;SDS011;10135;50.702;7.276;2023-04-03T10:34:06;2.50;;;1.30;;
19946;SDS011;10135;50.702;7.276;2023-04-03T10:48:48;3.77;;;1.23;;
19946;SDS011;10135;50.702;7.276;2023-04-03T10:51:23;2.00;;;1.23;;
19946;SDS011;10135;50.702;7.276;2023-04-03T10:54:31;1.80;;;1.63;;
19946;SDS011;10135;50.702;7.276;2023-04-03T10:58:20;1.50;;;1.20;;
19946;SDS011;10135;50.702;7.276;2023-04-03T11:02:49;1.23;;;1.13;;
19946;SDS011;10135;50.702;7.276;2023-04-03T11:05:16;1.47;;;1.20;;
19946;SDS011;10135;50.702;7.276;2023-04-03T11:07:38;1.23;;;1.13;;
19946;SDS011;10135;50.702;7.276;2023-04-03T11:09:46;1.40;;;1.30;;
19946;SDS011;10135;50.702;7.276;2023-04-03T11:11:53;2.10;;;1.40;;
19946;SDS011;10135;50.702;7.276;2023-04-03T11:14:13;1.63;;;1.30;;
19946;SDS011;10135;50.702;7.276;2023-04-03T11:16:26;3.80;;;1.47;;
19946;SDS011;10135;50.702;7.276;2023-04-03T11:18:40;1.43;;;1.33;;
19946;SDS011;10135;50.702;7.276;2023-04-03T11:21:00;1.27;;;1.27;;
19946;SDS011;10135;50.702;7.276;2023-04-03T11:23:51;1.40;;;1.30;;
19946;SDS011;10135;50.702;7.276;2023-04-03T11:25:39;1.27;;;1.20;;
19946;SDS011;10135;50.702;7.276;2023-04-03T11:27:44;1.40;;;1.30;;
19946;SDS011;10135;50.702;7.276;2023-04-03T11:29:50;1.57;;;1.47;;
19946;SDS011;10135;50.702;7.276;2023-04-03T11:32:06;1.67;;;1.37;;
19946;SDS011;10135;50.702;7.276;2023-04-03T11:36:45;1.27;;;1.17;;
19946;SDS011;10135;50.702;7.276;2023-04-03T11:38:57;1.47;;;1.37;;
19946;SDS011;10135;50.702;7.276;2023-04-03T11:41:08;1.50;;;1.40;;
19946;SDS011;10135;50.702;7.276;2023-04-03T11:43:20;1.17;;;1.17;;
19946;SDS011;10135;50.702;7.276;2023-04-03T11:45:32;1.20;;;1.10;;
19946;SDS011;10135;50.702;7.276;2023-04-03T11:48:04;2.33;;;1.40;;
19946;SDS011;10135;50.702;7.276;2023-04-03T11:54:44;1.50;;;1.40;;
19946;SDS011;10135;50.702;7.276;2023-04-03T11:56:48;1.07;;;1.00;;
19946;SDS011;10135;50.702;7.276;2023-04-03T12:01:23;1.00;;;1.00;;
19946;SDS011;10135;50.702;7.276;2023-04-03T12:04:03;1.17;;;1.13;;
19946;SDS011;10135;50.702;7.276;2023-04-03T12:11:08;1.10;;;1.10;;
19946;SDS011;10135;50.702;7.276;2023-04-03T12:13:15;2.23;;;1.40;;
19946;SDS011;10135;50.702;7.276;2023-04-03T12:15:25;2.57;;;1.30;;
19946;SDS011;10135;50.702;7.276;2023-04-03T12:17:49;1.27;;;1.27;;
19946;SDS011;10135;50.702;7.276;2023-04-03T12:19:51;1.50;;;1.40;;
19946;SDS011;10135;50.702;7.276;2023-04-03T12:23:59;1.10;;;1.10;;
19946;SDS011;10135;50.702;7.276;2023-04-03T12:26:37;2.50;;;1.17;;
19946;SDS011;10135;50.702;7.276;2023-04-03T12:28:45;1.20;;;1.20;;
19946;SDS011;10135;50.702;7.276;2023-04-03T12:30:49;1.10;;;1.10;;
19946;SDS011;10135;50.702;7.276;2023-04-03T12:33:04;1.20;;;1.10;;
19946;SDS011;10135;50.702;7.276;2023-04-03T12:35:56;1.10;;;1.10;;
19946;SDS011;10135;50.702;7.276;2023-04-03T12:38:21;1.10;;;1.10;;
19946;SDS011;10135;50.702;7.276;2023-04-03T12:46:21;1.57;;;1.47;;
19946;SDS011;10135;50.702;7.276;2023-04-03T12:48:24;2.13;;;1.53;;
19946;SDS011;10135;50.702;7.276;2023-04-03T12:50:32;2.50;;;1.13;;
19946;SDS011;10135;50.702;7.276;2023-04-03T12:52:41;1.23;;;1.17;;
19946;SDS011;10135;50.702;7.276;2023-04-03T12:54:56;1.77;;;1.40;;
19946;SDS011;10135;50.702;7.276;2023-04-03T12:57:18;1.43;;;1.30;;
19946;SDS011;10135;50.702;7.276;2023-04-03T12:59:27;1.47;;;1.37;;
19946;SDS011;10135;50.702;7.276;2023-04-03T13:01:28;1.30;;;1.30;;
19946;SDS011;10135;50.702;7.276;2023-04-03T13:03:28;1.63;;;1.33;;
19946;SDS011;10135;50.702;7.276;2023-04-03T13:05:30;2.33;;;1.30;;
19946;SDS011;10135;50.702;7.276;2023-04-03T13:07:33;1.30;;;1.20;;
19946;SDS011;10135;50.702;7.276;2023-04-03T13:09:38;1.30;;;1.20;;
19946;SDS011;10135;50.702;7.276;2023-04-03T13:11:40;1.50;;;1.50;;
19946;SDS011;10135;50.702;7.276;2023-04-03T13:13:59;1.37;;;1.27;;
19946;SDS011;10135;50.702;7.276;2023-04-03T13:16:15;1.50;;;1.40;;
19946;SDS011;10135;50.702;7.276;2023-04-03T13:20:36;1.63;;;1.47;;
19946;SDS011;10135;50.702;7.276;2023-04-03T13:22:43;1.40;;;1.30;;
19946;SDS011;10135;50.702;7.276;2023-04-03T13:25:05;1.33;;;1.33;;
19946;SDS011;10135;50.702;7.276;2023-04-03T13:27:10;1.67;;;1.50;;
19946;SDS011;10135;50.702;7.276;2023-04-03T13:31:43;1.47;;;1.37;;
19946;SDS011;10135;50.702;7.276;2023-04-03T13:33:55;1.53;;;1.40;;
19946;SDS011;10135;50.702;7.276;2023-04-03T13:36:07;1.70;;;1.60;;
19946;SDS011;10135;50.702;7.276;2023-04-03T13:38:22;1.60;;;1.50;;
19946;SDS011;10135;50.702;7.276;2023-04-03T13:40:26;1.43;;;1.33;;
19946;SDS011;10135;50.702;7.276;2023-04-03T13:42:28;1.57;;;1.40;;
19946;SDS011;10135;50.702;7.276;2023-04-03T13:44:34;1.43;;;1.40;;
19946;SDS011;10135;50.702;7.276;2023-04-03T13:46:39;1.30;;;1.20;;
19946;SDS011;10135;50.702;7.276;2023-04-03T13:48:44;1.47;;;1.37;;
19946;SDS011;10135;50.702;7.276;2023-04-03T13:50:58;3.13;;;1.50;;
19946;SDS011;10135;50.702;7.276;2023-04-03T13:53:16;1.57;;;1.40;;
19946;SDS011;10135;50.702;7.276;2023-04-03T13:57:23;1.50;;;1.40;;
19946;SDS011;10135;50.702;7.276;2023-04-03T13:59:31;1.30;;;1.20;;
19946;SDS011;10135;50.702;7.276;2023-04-03T14:04:17;1.30;;;1.20;;
19946;SDS011;10135;50.702;7.276;2023-04-03T14:06:25;1.37;;;1.27;;
19946;SDS011;10135;50.702;7.276;2023-04-03T14:08:27;1.70;;;1.60;;
19946;SDS011;10135;50.702;7.276;2023-04-03T14:10:27;2.73;;;1.53;;
19946;SDS011;10135;50.702;7.276;2023-04-03T14:12:34;2.03;;;1.40;;
19946;SDS011;10135;50.702;7.276;2023-04-03T14:14:39;1.97;;;1.40;;
19946;SDS011;10135;50.702;7.276;2023-04-03T14:16:42;2.63;;;1.57;;
19946;SDS011;10135;50.702;7.276;2023-04-03T14:18:51;1.83;;;1.10;;
19946;SDS011;10135;50.702;7.276;2023-04-03T14:20:52;1.47;;;1.37;;
19946;SDS011;10135;50.702;7.276;2023-04-03T14:22:53;1.30;;;1.30;;
19946;SDS011;10135;50.702;7.276;2023-04-03T14:24:55;1.60;;;1.50;;
19946;SDS011;10135;50.702;7.276;2023-04-03T14:26:56;1.67;;;1.57;;
19946;SDS011;10135;50.702;7.276;2023-04-03T14:28:57;1.53;;;1.33;;
19946;SDS011;10135;50.702;7.276;2023-04-03T14:30:58;1.33;;;1.33;;
19946;SDS011;10135;50.702;7.276;2023-04-03T14:32:59;2.77;;;1.40;;
19946;SDS011;10135;50.702;7.276;2023-04-03T14:35:00;1.37;;;1.27;;
19946;SDS011;10135;50.702;7.276;2023-04-03T14:37:01;1.70;;;1.60;;
19946;SDS011;10135;50.702;7.276;2023-04-03T14:39:04;1.97;;;1.43;;
19946;SDS011;10135;50.702;7.276;2023-04-03T14:41:07;1.90;;;1.40;;
19946;SDS011;10135;50.702;7.276;2023-04-03T14:43:12;1.40;;;1.30;;
19946;SDS011;10135;50.702;7.276;2023-04-03T14:45:13;1.47;;;1.37;;
19946;SDS011;10135;50.702;7.276;2023-04-03T14:47:16;1.60;;;1.50;;
19946;SDS011;10135;50.702;7.276;2023-04-03T14:49:26;1.30;;;1.20;;
19946;SDS011;10135;50.702;7.276;2023-04-03T14:51:29;1.80;;;1.20;;
19946;SDS011;10135;50.702;7.276;2023-04-03T14:53:29;2.40;;;1.50;;
19946;SDS011;10135;50.702;7.276;2023-04-03T14:55:32;1.50;;;1.40;;
19946;SDS011;10135;50.702;7.276;2023-04-03T14:57:33;1.40;;;1.30;;
19946;SDS011;10135;50.702;7.276;2023-04-03T14:59:34;1.10;;;1.10;;
19946;SDS011;10135;50.702;7.276;2023-04-03T15:01:35;2.77;;;1.50;;
19946;SDS011;10135;50.702;7.276;2023-04-03T15:03:36;1.77;;;1.40;;
19946;SDS011;10135;50.702;7.276;2023-04-03T15:05:36;1.60;;;1.40;;
19946;SDS011;10135;50.702;7.276;2023-04-03T15:07:38;1.17;;;1.17;;
19946;SDS011;10135;50.702;7.276;2023-04-03T15:09:41;1.50;;;1.37;;
19946;SDS011;10135;50.702;7.276;2023-04-03T15:11:42;1.60;;;1.50;;
19946;SDS011;10135;50.702;7.276;2023-04-03T15:13:43;1.47;;;1.37;;
19946;SDS011;10135;50.702;7.276;2023-04-03T15:15:44;1.20;;;1.20;;
19946;SDS011;10135;50.702;7.276;2023-04-03T15:17:45;1.80;;;1.40;;
19946;SDS011;10135;50.702;7.276;2023-04-03T15:19:50;2.50;;;1.30;;
19946;SDS011;10135;50.702;7.276;2023-04-03T15:21:50;2.33;;;1.50;;
19946;SDS011;10135;50.702;7.276;2023-04-03T15:23:51;1.27;;;1.20;;
19946;SDS011;10135;50.702;7.276;2023-04-03T15:25:52;1.40;;;1.30;;
19946;SDS011;10135;50.702;7.276;2023-04-03T15:27:54;1.30;;;1.20;;
19946;SDS011;10135;50.702;7.276;2023-04-03T15:29:56;1.17;;;1.17;;
19946;SDS011;10135;50.702;7.276;2023-04-03T15:31:57;1.53;;;1.43;;
19946;SDS011;10135;50.702;7.276;2023-04-03T15:33:57;1.30;;;1.20;;
19946;SDS011;10135;50.702;7.276;2023-04-03T15:35:58;1.20;;;1.20;;
19946;SDS011;10135;50.702;7.276;2023-04-03T15:37:59;1.63;;;1.40;;
19946;SDS011;10135;50.702;7.276;2023-04-03T15:39:59;1.50;;;1.30;;
19946;SDS011;10135;50.702;7.276;2023-04-03T15:42:00;2.03;;;1.47;;
19946;SDS011;10135;50.702;7.276;2023-04-03T15:44:05;2.57;;;1.20;;
19946;SDS011;10135;50.702;7.276;2023-04-03T15:46:06;1.37;;;1.20;;
19946;SDS011;10135;50.702;7.276;2023-04-03T15:48:07;1.57;;;1.40;;
19946;SDS011;10135;50.702;7.276;2023-04-03T15:50:09;1.43;;;1.33;;
19946;SDS011;10135;50.702;7.276;2023-04-03T15:52:10;1.83;;;1.70;;
19946;SDS011;10135;50.702;7.276;2023-04-03T15:54:11;1.70;;;1.50;;
19946;SDS011;10135;50.702;7.276;2023-04-03T15:56:12;1.70;;;1.60;;
19946;SDS011;10135;50.702;7.276;2023-04-03T15:58:13;1.13;;;1.10;;
19946;SDS011;10135;50.702;7.276;2023-04-03T16:00:13;1.50;;;1.30;;
19946;SDS011;10135;50.702;7.276;2023-04-03T16:02:15;1.40;;;1.30;;
19946;SDS011;10135;50.702;7.276;2023-04-03T16:04:16;1.40;;;1.30;;
19946;SDS011;10135;50.702;7.276;2023-04-03T16:06:18;1.40;;;1.40;;
19946;SDS011;10135;50.702;7.276;2023-04-03T16:08:19;1.50;;;1.40;;
19946;SDS011;10135;50.702;7.276;2023-04-03T16:10:20;1.60;;;1.50;;
19946;SDS011;10135;50.702;7.276;2023-04-03T16:12:21;1.30;;;1.20;;
19946;SDS011;10135;50.702;7.276;2023-04-03T16:14:21;2.47;;;1.27;;
19946;SDS011;10135;50.702;7.276;2023-04-03T16:16:22;1.40;;;1.30;;
19946;SDS011;10135;50.702;7.276;2023-04-03T16:18:26;1.27;;;1.13;;
19946;SDS011;10135;50.702;7.276;2023-04-03T16:20:27;1.20;;;1.10;;
19946;SDS011;10135;50.702;7.276;2023-04-03T16:22:28;1.23;;;1.20;;
19946;SDS011;10135;50.702;7.276;2023-04-03T16:24:30;1.63;;;1.40;;
19946;SDS011;10135;50.702;7.276;2023-04-03T16:26:32;1.20;;;1.20;;
19946;SDS011;10135;50.702;7.276;2023-04-03T16:28:32;1.10;;;1.10;;
19946;SDS011;10135;50.702;7.276;2023-04-03T16:30:33;1.13;;;1.13;;
19946;SDS011;10135;50.702;7.276;2023-04-03T16:32:34;1.37;;;1.27;;
19946;SDS011;10135;50.702;7.276;2023-04-03T16:34:36;1.13;;;1.13;;
19946;SDS011;10135;50.702;7.276;2023-04-03T16:36:37;1.17;;;1.17;;
19946;SDS011;10135;50.702;7.276;2023-04-03T16:38:38;1.50;;;1.37;;
19946;SDS011;10135;50.702;7.276;2023-04-03T16:40:38;1.20;;;1.20;;
19946;SDS011;10135;50.702;7.276;2023-04-03T16:42:39;1.23;;;1.13;;
19946;SDS011;10135;50.702;7.276;2023-04-03T16:44:40;2.87;;;1.40;;
19946;SDS011;10135;50.702;7.276;2023-04-03T16:46:41;1.47;;;1.30;;
19946;SDS011;10135;50.702;7.276;2023-04-03T16:48:42;1.53;;;1.43;;
19946;SDS011;10135;50.702;7.276;2023-04-03T16:50:45;2.07;;;1.10;;
19946;SDS011;10135;50.702;7.276;2023-04-03T16:52:53;3.30;;;1.20;;
19946;SDS011;10135;50.702;7.276;2023-04-03T16:54:53;1.50;;;1.30;;
19946;SDS011;10135;50.702;7.276;2023-04-03T16:56:55;1.53;;;1.20;;
19946;SDS011;10135;50.702;7.276;2023-04-03T16:58:56;1.67;;;1.40;;
19946;SDS011;10135;50.702;7.276;2023-04-03T17:00:56;1.33;;;1.23;;
19946;SDS011;10135;50.702;7.276;2023-04-03T17:02:57;2.87;;;1.30;;
19946;SDS011;10135;50.702;7.276;2023-04-03T17:04:58;1.23;;;1.10;;
19946;SDS011;10135;50.702;7.276;2023-04-03T17:06:58;2.23;;;1.33;;
19946;SDS011;10135;50.702;7.276;2023-04-03T17:09:05;1.00;;;1.00;;
19946;SDS011;10135;50.702;7.276;2023-04-03T17:11:06;1.80;;;1.40;;
19946;SDS011;10135;50.702;7.276;2023-04-03T17:13:07;1.20;;;1.10;;
19946;SDS011;10135;50.702;7.276;2023-04-03T17:15:08;1.23;;;1.13;;
19946;SDS011;10135;50.702;7.276;2023-04-03T17:17:09;1.20;;;1.10;;
19946;SDS011;10135;50.702;7.276;2023-04-03T17:19:10;1.30;;;1.30;;
19946;SDS011;10135;50.702;7.276;2023-04-03T17:21:11;1.07;;;1.03;;
19946;SDS011;10135;50.702;7.276;2023-04-03T17:23:13;1.50;;;1.17;;
19946;SDS011;10135;50.702;7.276;2023-04-03T17:25:15;1.20;;;1.20;;
19946;SDS011;10135;50.702;7.276;2023-04-03T17:27:15;2.00;;;1.30;;
19946;SDS011;10135;50.702;7.276;2023-04-03T17:29:16;1.50;;;1.40;;
19946;SDS011;10135;50.702;7.276;2023-04-03T17:31:16;1.77;;;1.17;;
19946;SDS011;10135;50.702;7.276;2023-04-03T17:33:18;1.60;;;1.20;;
19946;SDS011;10135;50.702;7.276;2023-04-03T17:35:18;1.30;;;1.30;;
19946;SDS011;10135;50.702;7.276;2023-04-03T17:37:19;1.33;;;1.20;;
19946;SDS011;10135;50.702;7.276;2023-04-03T17:39:20;1.83;;;1.30;;
19946;SDS011;10135;50.702;7.276;2023-04-03T17:41:20;1.37;;;1.27;;
19946;SDS011;10135;50.702;7.276;2023-04-03T17:43:22;1.33;;;1.30;;
19946;SDS011;10135;50.702;7.276;2023-04-03T17:45:23;1.60;;;1.50;;
19946;SDS011;10135;50.702;7.276;2023-04-03T17:47:23;1.30;;;1.20;;
19946;SDS011;10135;50.702;7.276;2023-04-03T17:49:24;1.90;;;1.30;;
19946;SDS011;10135;50.702;7.276;2023-04-03T17:51:25;1.30;;;1.20;;
19946;SDS011;10135;50.702;7.276;2023-04-03T17:53:26;1.30;;;1.30;;
19946;SDS011;10135;50.702;7.276;2023-04-03T17:55:27;1.10;;;1.10;;
19946;SDS011;10135;50.702;7.276;2023-04-03T17:57:28;1.63;;;1.37;;
19946;SDS011;10135;50.702;7.276;2023-04-03T17:59:30;1.20;;;1.20;;
19946;SDS011;10135;50.702;7.276;2023-04-03T18:01:32;1.23;;;1.00;;
19946;SDS011;10135;50.702;7.276;2023-04-03T18:03:35;1.30;;;1.20;;
19946;SDS011;10135;50.702;7.276;2023-04-03T18:05:35;1.33;;;1.20;;
19946;SDS011;10135;50.702;7.276;2023-04-03T18:07:37;1.30;;;1.20;;
19946;SDS011;10135;50.702;7.276;2023-04-03T18:09:39;1.27;;;1.17;;
19946;SDS011;10135;50.702;7.276;2023-04-03T18:11:41;1.50;;;1.33;;
19946;SDS011;10135;50.702;7.276;2023-04-03T18:13:45;1.30;;;1.20;;
19946;SDS011;10135;50.702;7.276;2023-04-03T18:15:46;1.10;;;1.10;;
19946;SDS011;10135;50.702;7.276;2023-04-03T18:17:48;1.20;;;1.13;;
19946;SDS011;10135;50.702;7.276;2023-04-03T18:19:50;1.17;;;1.17;;
19946;SDS011;10135;50.702;7.276;2023-04-03T18:21:51;1.10;;;1.10;;
19946;SDS011;10135;50.702;7.276;2023-04-03T18:23:59;1.60;;;1.30;;
19946;SDS011;10135;50.702;7.276;2023-04-03T18:26:01;1.93;;;1.40;;
19946;SDS011;10135;50.702;7.276;2023-04-03T18:28:03;1.60;;;1.50;;
19946;SDS011;10135;50.702;7.276;2023-04-03T18:30:06;2.27;;;1.70;;
19946;SDS011;10135;50.702;7.276;2023-04-03T18:32:13;1.60;;;1.50;;
19946;SDS011;10135;50.702;7.276;2023-04-03T18:34:16;1.67;;;1.47;;
19946;SDS011;10135;50.702;7.276;2023-04-03T18:36:17;1.83;;;1.40;;
19946;SDS011;10135;50.702;7.276;2023-04-03T18:38:18;1.40;;;1.30;;
19946;SDS011;10135;50.702;7.276;2023-04-03T18:40:18;2.83;;;1.37;;
19946;SDS011;10135;50.702;7.276;2023-04-03T18:42:20;1.50;;;1.40;;